createdAt,value
2023-03-13T00:02:36.421Z,50.45
2023-03-13T00:05:38.114Z,50.49
2023-03-13T00:08:40.550Z,50.76
2023-03-13T00:11:43.818Z,50.85
2023-03-13T00:14:45.601Z,51.16
2023-03-13T00:17:47.274Z,51.09
2023-03-13T00:20:49.981Z,51.24
2023-03-13T00:23:52.069Z,51.28
2023-03-13T00:26:54.839Z,51.41
2023-03-13T00:29:56.520Z,51.38
2023-03-13T00:32:58.435Z,51.87
2023-03-13T00:36:03.194Z,51.69
2023-03-13T00:39:06.734Z,51.93
2023-03-13T00:42:09.509Z,51.95
2023-03-13T00:45:11.267Z,52.18
2023-03-13T00:48:12.982Z,52.27
2023-03-13T00:51:16.613Z,52.69
2023-03-13T00:54:18.337Z,52.67
2023-03-13T00:57:20.094Z,52.99
2023-03-13T01:00:21.948Z,52.97
2023-03-13T01:03:27.259Z,53.09
2023-03-13T01:06:30.959Z,53.34
2023-03-13T01:09:33.063Z,53.39
2023-03-13T01:12:34.856Z,53.59
2023-03-13T01:15:36.673Z,54.01
2023-03-13T01:18:41.647Z,54.05
2023-03-13T01:21:45.209Z,54.33
2023-03-13T01:24:51.610Z,54.41
2023-03-13T01:27:53.342Z,54.34
2023-03-13T01:30:56.268Z,54.72
2023-03-13T01:34:00.861Z,54.99
2023-03-13T01:37:02.929Z,54.90
2023-03-13T01:40:05.052Z,55.23
2023-03-13T01:43:27.190Z,55.21
2023-03-13T01:46:30.811Z,55.44
2023-03-13T01:49:39.892Z,55.32
2023-03-13T01:52:45.932Z,55.44
2023-03-13T01:55:55.022Z,55.61
2023-03-13T01:58:58.703Z,55.96
2023-03-13T02:02:04.045Z,56.15
2023-03-13T02:05:06.950Z,56.13
2023-03-13T02:08:18.438Z,56.20
2023-03-13T02:11:34.811Z,56.24
2023-03-13T02:14:40.563Z,56.49
2023-03-13T02:17:43.991Z,56.46
2023-03-13T02:20:47.471Z,56.62
2023-03-13T02:24:09.287Z,56.79
2023-03-13T02:27:11.713Z,56.92
2023-03-13T02:30:14.751Z,56.89
2023-03-13T02:33:19.173Z,56.99
2023-03-13T02:36:22.120Z,57.10
2023-03-13T02:39:25.765Z,57.31
2023-03-13T02:42:28.857Z,57.34
2023-03-13T02:45:30.720Z,57.59
2023-03-13T02:48:45.145Z,57.72
2023-03-13T02:51:47.484Z,57.67
2023-03-13T02:54:54.502Z,57.68
2023-03-13T02:57:56.516Z,58.06
2023-03-13T03:01:06.985Z,58.17
2023-03-13T03:04:09.628Z,58.32
2023-03-13T03:07:11.411Z,58.55
2023-03-13T03:10:13.881Z,58.41
2023-03-13T03:13:15.848Z,58.75
2023-03-13T03:16:20.726Z,58.71
2023-03-13T03:19:22.500Z,58.74
2023-03-13T03:22:24.266Z,59.22
2023-03-13T03:25:26.842Z,59.22
2023-03-13T03:28:29.194Z,59.25
2023-03-13T03:31:31.384Z,59.31
2023-03-13T03:34:33.634Z,59.32
2023-03-13T03:37:35.607Z,59.59
2023-03-13T03:40:37.707Z,59.62
2023-03-13T03:43:39.711Z,59.82
2023-03-13T03:46:41.925Z,59.81
2023-03-13T03:49:43.758Z,59.88
2023-03-13T03:52:46.316Z,60.05
2023-03-13T03:55:48.203Z,60.25
2023-03-13T03:58:50.290Z,60.49
2023-03-13T04:02:04.071Z,60.53
2023-03-13T04:05:06.916Z,60.85
2023-03-13T04:08:10.339Z,61.09
2023-03-13T04:11:12.193Z,61.36
2023-03-13T04:14:16.968Z,61.37
2023-03-13T04:17:19.722Z,61.41
2023-03-13T04:20:21.788Z,61.51
2023-03-13T04:23:23.630Z,61.62
2023-03-13T04:26:27.039Z,61.61
2023-03-13T04:29:30.461Z,61.73
2023-03-13T04:32:58.144Z,61.68
2023-03-13T04:36:32.209Z,62.07
2023-03-13T04:39:43.762Z,62.12
2023-03-13T04:43:12.473Z,62.22
2023-03-13T04:46:17.810Z,62.31
2023-03-13T04:49:35.163Z,62.34
2023-03-13T04:53:09.090Z,62.55
2023-03-13T04:56:42.643Z,62.63
2023-03-13T05:00:07.541Z,62.68
2023-03-13T05:03:17.009Z,62.92
2023-03-13T05:06:28.818Z,63.00
2023-03-13T05:09:48.898Z,63.05
2023-03-13T05:13:11.642Z,63.25
2023-03-13T05:16:31.692Z,63.27
2023-03-13T05:19:53.663Z,63.46
2023-03-13T05:23:15.070Z,63.63
2023-03-13T05:26:37.051Z,63.48
2023-03-13T05:29:51.581Z,63.69
2023-03-13T05:33:19.636Z,63.39
2023-03-13T05:36:38.466Z,63.61
2023-03-13T05:39:58.550Z,63.81
2023-03-13T05:43:20.907Z,63.83
2023-03-13T05:46:41.236Z,63.62
2023-03-13T05:50:03.099Z,63.91
2023-03-13T05:53:04.813Z,63.95
2023-03-13T05:56:27.299Z,63.92
2023-03-13T05:59:51.851Z,64.15
2023-03-13T06:03:14.230Z,64.00
2023-03-13T06:06:18.221Z,64.07
2023-03-13T06:09:24.146Z,64.15
2023-03-13T06:12:27.227Z,63.77
2023-03-13T06:15:28.969Z,63.90
2023-03-13T06:18:41.250Z,63.99
2023-03-13T06:21:43.081Z,64.00
2023-03-13T06:24:46.212Z,64.09
2023-03-13T06:27:47.874Z,64.07
2023-03-13T06:30:49.664Z,63.88
2023-03-13T06:33:55.655Z,64.21
2023-03-13T06:36:58.165Z,64.00
2023-03-13T06:39:59.964Z,64.10
2023-03-13T06:43:01.754Z,64.14
2023-03-13T06:46:04.706Z,64.11
2023-03-13T06:49:07.663Z,64.17
2023-03-13T06:52:09.422Z,64.16
2023-03-13T06:55:12.218Z,64.09
2023-03-13T06:58:30.618Z,63.95
2023-03-13T07:01:33.663Z,64.13
2023-03-13T07:04:35.330Z,63.96
2023-03-13T07:07:37.176Z,64.10
2023-03-13T07:10:38.860Z,64.06
2023-03-13T07:13:40.721Z,64.02
2023-03-13T07:16:43.218Z,63.98
2023-03-13T07:19:45.109Z,63.80
2023-03-13T07:22:51.679Z,63.77
2023-03-13T07:25:55.581Z,63.65
2023-03-13T07:28:57.296Z,63.57
2023-03-13T07:31:59.031Z,63.68
2023-03-13T07:35:02.800Z,63.37
2023-03-13T07:38:04.483Z,63.31
2023-03-13T07:41:06.269Z,63.21
2023-03-13T07:44:08.255Z,63.26
2023-03-13T07:47:10.340Z,63.19
2023-03-13T07:50:12.670Z,63.13
2023-03-13T07:53:20.348Z,63.03
2023-03-13T07:56:23.827Z,63.07
2023-03-13T07:59:25.830Z,62.84
2023-03-13T08:02:28.667Z,62.81
2023-03-13T08:05:33.999Z,62.78
2023-03-13T08:08:37.119Z,62.68
2023-03-13T08:11:43.929Z,62.73
2023-03-13T08:14:45.844Z,62.68
2023-03-13T08:17:47.639Z,62.50
2023-03-13T08:20:49.861Z,62.49
2023-03-13T08:23:57.275Z,62.39
2023-03-13T08:26:59.108Z,62.45
2023-03-13T08:30:00.882Z,62.22
2023-03-13T08:33:02.871Z,62.18
2023-03-13T08:36:24.425Z,62.16
2023-03-13T08:39:26.562Z,62.20
2023-03-13T08:42:28.279Z,62.06
2023-03-13T08:45:30.069Z,61.79
2023-03-13T08:48:31.937Z,61.77
2023-03-13T08:51:35.444Z,61.70
2023-03-13T08:54:37.283Z,61.58
2023-03-13T08:57:39.110Z,61.23
2023-03-13T09:00:40.893Z,61.36
2023-03-13T09:03:43.129Z,60.98
2023-03-13T09:06:44.862Z,60.80
2023-03-13T09:09:46.686Z,60.55
2023-03-13T09:12:48.510Z,60.49
2023-03-13T09:16:19.827Z,60.45
2023-03-13T09:19:21.739Z,60.30
2023-03-13T09:22:23.526Z,60.16
2023-03-13T09:25:25.470Z,59.92
2023-03-13T09:28:27.863Z,59.76
2023-03-13T09:31:30.755Z,59.78
2023-03-13T09:34:32.762Z,59.38
2023-03-13T09:37:34.510Z,58.97
2023-03-13T09:40:48.641Z,58.67
2023-03-13T09:44:13.479Z,58.37
2023-03-13T09:47:42.272Z,58.07
2023-03-13T09:50:53.845Z,57.70
2023-03-13T09:54:10.792Z,57.51
2023-03-13T09:57:15.986Z,57.36
2023-03-13T10:00:32.396Z,57.11
2023-03-13T10:03:44.118Z,57.26
2023-03-13T10:06:48.274Z,57.26
2023-03-13T10:09:50.152Z,57.03
2023-03-13T10:13:02.993Z,56.99
2023-03-13T10:16:09.514Z,56.92
2023-03-13T10:19:17.002Z,56.86
2023-03-13T10:22:24.629Z,56.68
2023-03-13T10:25:33.793Z,56.54
2023-03-13T10:28:35.594Z,56.39
2023-03-13T10:31:39.162Z,55.97
2023-03-13T10:34:57.556Z,55.79
2023-03-13T10:38:16.972Z,55.87
2023-03-13T10:41:33.856Z,55.86
2023-03-13T10:44:35.652Z,55.57
2023-03-13T10:47:37.977Z,55.45
2023-03-13T10:50:46.761Z,55.19
2023-03-13T10:53:49.149Z,55.08
2023-03-13T10:56:51.607Z,55.01
2023-03-13T10:59:54.369Z,54.65
2023-03-13T11:02:56.414Z,54.78
2023-03-13T11:06:03.130Z,54.55
2023-03-13T11:09:13.854Z,54.48
2023-03-13T11:12:20.456Z,54.45
2023-03-13T11:15:30.143Z,54.46
2023-03-13T11:18:58.392Z,54.54
2023-03-13T11:22:16.963Z,54.51
2023-03-13T11:25:43.084Z,54.46
2023-03-13T11:28:53.824Z,54.45
2023-03-13T11:32:05.687Z,54.44
2023-03-13T11:35:45.720Z,54.58
2023-03-13T11:39:27.987Z,54.62
2023-03-13T11:42:54.474Z,54.38
2023-03-13T11:46:11.382Z,54.18
2023-03-13T11:49:18.525Z,54.17
2023-03-13T11:52:29.497Z,54.23
2023-03-13T11:55:40.047Z,54.28
2023-03-13T11:58:53.628Z,54.31
2023-03-13T12:02:15.301Z,54.21
2023-03-13T12:05:20.808Z,54.12
2023-03-13T12:08:52.568Z,54.04
2023-03-13T12:12:02.946Z,54.15
2023-03-13T12:15:13.867Z,54.30
2023-03-13T12:18:33.309Z,54.23
2023-03-13T12:21:42.193Z,54.00
2023-03-13T12:24:53.158Z,54.04
2023-03-13T12:28:04.292Z,54.10
2023-03-13T12:31:17.008Z,54.03
2023-03-13T12:34:25.013Z,54.14
2023-03-13T12:37:48.789Z,54.51
2023-03-13T12:41:19.460Z,54.52
2023-03-13T12:44:23.284Z,54.64
2023-03-13T12:47:32.326Z,54.81
2023-03-13T12:50:56.607Z,55.17
2023-03-13T12:54:21.250Z,55.01
2023-03-13T12:57:44.647Z,55.25
2023-03-13T13:00:49.615Z,55.21
2023-03-13T13:04:05.203Z,55.23
2023-03-13T13:07:21.009Z,55.34
2023-03-13T13:10:27.004Z,55.46
2023-03-13T13:13:31.301Z,55.56
2023-03-13T13:16:33.611Z,55.59
2023-03-13T13:19:41.051Z,55.28
2023-03-13T13:22:47.206Z,55.69
2023-03-13T13:25:49.578Z,55.45
2023-03-13T13:28:53.896Z,55.54
2023-03-13T13:31:59.675Z,55.40
2023-03-13T13:35:34.061Z,55.35
2023-03-13T13:38:42.784Z,55.45
2023-03-13T13:41:44.765Z,55.44
2023-03-13T13:45:14.514Z,55.48
2023-03-13T13:48:22.334Z,55.27
2023-03-13T13:51:24.986Z,55.26
2023-03-13T13:54:29.821Z,55.39
2023-03-13T13:57:36.577Z,55.20
2023-03-13T14:00:40.843Z,55.16
2023-03-13T14:03:43.206Z,55.20
2023-03-13T14:06:50.227Z,55.12
2023-03-13T14:09:57.372Z,55.09
2023-03-13T14:13:00.914Z,55.08
2023-03-13T14:16:32.642Z,54.88
2023-03-13T14:19:41.624Z,55.01
2023-03-13T14:22:47.975Z,54.94
2023-03-13T14:25:50.650Z,55.01
2023-03-13T14:28:56.855Z,55.24
2023-03-13T14:31:59.508Z,55.21
2023-03-13T14:35:02.086Z,55.19
2023-03-13T14:38:03.998Z,55.28
2023-03-13T14:41:05.884Z,55.27
2023-03-13T14:44:30.087Z,55.54
2023-03-13T14:47:32.612Z,55.76
2023-03-13T14:50:34.815Z,55.79
2023-03-13T14:53:36.832Z,55.95
2023-03-13T14:56:41.723Z,55.95
2023-03-13T14:59:43.912Z,55.96
2023-03-13T15:02:45.754Z,56.07
2023-03-13T15:05:50.325Z,56.18
2023-03-13T15:09:14.610Z,56.14
2023-03-13T15:12:20.114Z,56.09
2023-03-13T15:15:21.956Z,56.11
2023-03-13T15:18:29.643Z,56.10
2023-03-13T15:21:34.582Z,56.16
2023-03-13T15:24:36.301Z,56.13
2023-03-13T15:31:30.386Z,56.18
2023-03-13T15:34:34.852Z,56.25
2023-03-13T15:37:36.878Z,56.09
2023-03-13T15:40:38.682Z,56.29
2023-03-13T15:43:40.467Z,56.30
2023-03-13T15:46:42.505Z,56.32
2023-03-13T15:49:44.184Z,56.25
2023-03-13T15:52:46.190Z,56.46
2023-03-13T15:55:49.213Z,56.25
2023-03-13T15:58:51.218Z,56.26
2023-03-13T16:01:52.938Z,56.37
2023-03-13T16:04:57.996Z,56.42
2023-03-13T16:07:59.988Z,56.53
2023-03-13T16:11:06.977Z,56.54
2023-03-13T16:14:08.760Z,56.48
2023-03-13T16:17:15.522Z,56.41
2023-03-13T16:20:21.038Z,56.44
2023-03-13T16:23:22.898Z,56.45
2023-03-13T16:26:27.925Z,56.39
2023-03-13T16:29:30.713Z,56.47
2023-03-13T16:32:32.591Z,56.46
2023-03-13T16:35:34.811Z,56.39
2023-03-13T16:38:36.522Z,56.38
2023-03-13T16:41:38.317Z,56.30
2023-03-13T16:44:40.336Z,56.49
2023-03-13T16:47:43.096Z,56.46
2023-03-13T16:50:46.013Z,56.44
2023-03-13T16:53:50.114Z,56.49
2023-03-13T16:56:51.969Z,56.51
2023-03-13T16:59:53.861Z,56.65
2023-03-13T17:02:58.680Z,56.44
2023-03-13T17:06:00.971Z,56.62
2023-03-13T17:09:10.293Z,56.49
2023-03-13T17:12:12.157Z,56.63
2023-03-13T17:15:14.161Z,56.64
2023-03-13T17:18:16.821Z,56.51
2023-03-13T17:21:22.009Z,56.54
2023-03-13T17:24:27.285Z,56.72
2023-03-13T17:27:31.467Z,56.59
2023-03-13T17:30:34.033Z,56.73
2023-03-13T17:33:36.724Z,56.72
2023-03-13T17:36:43.951Z,56.68
2023-03-13T17:39:46.688Z,56.60
2023-03-13T17:42:51.444Z,56.85
2023-03-13T17:45:55.674Z,56.88
2023-03-13T17:49:00.471Z,56.82
2023-03-13T17:52:03.395Z,56.86
2023-03-13T17:55:07.892Z,56.88
2023-03-13T17:58:10.633Z,56.86
2023-03-13T18:01:14.308Z,56.85
2023-03-13T18:10:24.459Z,56.95
2023-03-13T18:13:28.161Z,56.97
2023-03-13T18:16:43.348Z,57.16
2023-03-13T18:19:47.909Z,56.99
2023-03-13T18:22:51.376Z,57.02
2023-03-13T18:25:57.978Z,56.88
2023-03-13T18:29:03.378Z,56.81
2023-03-13T18:32:07.700Z,56.96
2023-03-13T18:35:13.632Z,57.11
2023-03-13T18:38:19.179Z,56.82
2023-03-13T18:41:23.017Z,56.92
2023-03-13T18:44:26.472Z,56.80
2023-03-13T18:47:29.776Z,56.62
2023-03-13T18:50:32.904Z,56.79
2023-03-13T18:53:36.464Z,56.54
2023-03-13T18:56:40.014Z,56.60
2023-03-13T18:59:44.235Z,56.49
2023-03-13T19:02:47.509Z,56.51
2023-03-13T19:05:50.798Z,56.67
2023-03-13T19:08:57.593Z,56.48
2023-03-13T19:12:00.950Z,56.44
2023-03-13T19:15:04.279Z,56.35
2023-03-13T19:18:11.846Z,56.36
2023-03-13T19:21:26.622Z,56.47
2023-03-13T19:24:29.830Z,56.49
2023-03-13T19:27:33.240Z,56.50
2023-03-13T19:30:36.944Z,56.50
2023-03-13T19:33:40.452Z,56.60
2023-03-13T19:36:48.748Z,56.55
2023-03-13T19:39:51.893Z,56.66
2023-03-13T19:42:55.156Z,56.54
2023-03-13T19:45:58.321Z,56.86
2023-03-13T19:49:02.428Z,56.69
2023-03-13T19:52:05.541Z,56.63
2023-03-13T19:55:08.916Z,56.84
2023-03-13T19:58:12.901Z,57.38
2023-03-13T20:01:18.001Z,57.19
2023-03-13T20:04:21.752Z,57.10
2023-03-13T20:07:24.908Z,57.18
2023-03-13T20:10:27.966Z,57.05
2023-03-13T20:13:31.069Z,56.95
2023-03-13T20:16:35.291Z,57.01
2023-03-13T20:19:38.532Z,56.89
2023-03-13T20:22:41.724Z,56.62
2023-03-13T20:25:44.880Z,56.47
2023-03-13T20:28:52.041Z,56.57
2023-03-13T20:31:55.963Z,56.38
2023-03-13T20:34:59.067Z,56.24
2023-03-13T20:38:05.023Z,56.35
2023-03-13T20:41:08.895Z,56.14
2023-03-13T20:44:12.037Z,56.01
2023-03-13T20:47:15.208Z,55.89
2023-03-13T20:50:19.725Z,55.72
2023-03-13T20:53:26.408Z,55.63
2023-03-13T20:56:29.512Z,55.60
2023-03-13T20:59:32.580Z,55.35
2023-03-13T21:02:35.720Z,55.28
2023-03-13T21:05:39.892Z,55.12
2023-03-13T21:08:43.898Z,55.21
2023-03-13T21:11:47.203Z,54.92
2023-03-13T21:14:53.541Z,54.67
2023-03-13T21:17:56.948Z,54.65
2023-03-13T21:21:03.291Z,54.54
2023-03-13T21:24:06.751Z,54.45
2023-03-13T21:27:09.878Z,54.26
2023-03-13T21:30:17.510Z,54.37
2023-03-13T21:33:20.639Z,54.39
2023-03-13T21:36:23.939Z,54.37
2023-03-13T21:39:27.191Z,54.07
2023-03-13T21:42:30.393Z,54.06
2023-03-13T21:45:34.791Z,54.08
2023-03-13T21:48:42.168Z,53.94
2023-03-13T21:51:45.338Z,53.83
2023-03-13T21:54:49.122Z,53.54
2023-03-13T21:57:52.264Z,53.59
2023-03-13T22:00:57.203Z,53.54
2023-03-13T22:04:00.397Z,53.40
2023-03-13T22:07:04.023Z,53.44
2023-03-13T22:10:07.496Z,53.26
2023-03-13T22:13:10.822Z,53.25
2023-03-13T22:16:13.951Z,53.17
2023-03-13T22:19:20.371Z,53.05
2023-03-13T22:22:23.491Z,53.01
2023-03-13T22:25:26.607Z,52.97
2023-03-13T22:28:29.731Z,52.83
2023-03-13T22:31:33.010Z,52.77
2023-03-13T22:34:36.234Z,52.80
2023-03-13T22:37:39.374Z,52.88
2023-03-13T22:40:42.492Z,52.91
2023-03-13T22:43:45.577Z,52.97
2023-03-13T22:46:48.717Z,53.25
2023-03-13T22:49:53.536Z,53.10
2023-03-13T22:52:56.581Z,53.14
2023-03-13T22:55:59.841Z,53.12
2023-03-13T22:59:03.694Z,53.27
2023-03-13T23:02:06.786Z,53.10
2023-03-13T23:05:10.520Z,53.10
2023-03-13T23:08:15.578Z,53.25
2023-03-13T23:11:19.504Z,53.35
2023-03-13T23:14:22.644Z,53.29
2023-03-13T23:17:27.111Z,53.33
2023-03-13T23:20:30.519Z,53.34
2023-03-13T23:23:34.518Z,53.29
2023-03-13T23:26:37.736Z,53.48
2023-03-13T23:29:40.886Z,53.53
2023-03-13T23:32:46.696Z,53.57
2023-03-13T23:35:49.913Z,53.67
2023-03-13T23:38:54.122Z,53.75
2023-03-13T23:41:57.802Z,53.65
2023-03-13T23:45:02.553Z,53.86
2023-03-13T23:48:05.827Z,53.99
2023-03-13T23:51:09.089Z,54.14
2023-03-13T23:54:12.208Z,54.31
2023-03-13T23:57:15.275Z,54.28
